Time;durP1;ratioP1;P1;durP2;ratioP2;P2;SDS_P1;SDS_P2;PMS_P1;PMS_P2;Temp;Humidity;BMP_temperature;BMP_pressure;BME280_temperature;BME280_humidity;BME280_pressure;Samples;Min_cycle;Max_cycle;Signal;HPM_P1;HPM_P2
2023/11/27 00:01:06;;;;;;;;;;;1.10;80.10;;;;;;4996124;28;87415;-43
2023/11/27 00:03:31;;;;;;;;;;;1.20;80.20;;;;;;4997004;28;87001;-43
2023/11/27 00:05:57;;;;;;;;;;;1.10;80.00;;;;;;4997252;28;86822;-43
2023/11/27 00:08:22;;;;;;;;;;;1.10;80.10;;;;;;4995117;28;87624;-44
2023/11/27 00:10:48;;;;;;;;;;;1.10;80.20;;;;;;4996763;28;86765;-45
2023/11/27 00:13:14;;;;;;;;;;;1.10;80.10;;;;;;5000589;28;86845;-44
2023/11/27 00:15:39;;;;;;;;;;;1.10;80.30;;;;;;4998922;28;86968;-43
2023/11/27 00:18:05;;;;;;;;;;;1.10;80.10;;;;;;4994562;28;87845;-45
2023/11/27 00:20:30;;;;;;;;;;;1.10;80.10;;;;;;4998086;28;87461;-45
2023/11/27 00:22:56;;;;;;;;;;;1.10;80.30;;;;;;4994070;28;87115;-44
2023/11/27 00:25:22;;;;;;;;;;;1.10;80.30;;;;;;4995054;28;86891;-44
2023/11/27 00:27:47;;;;;;;;;;;1.10;80.20;;;;;;4996930;28;88651;-44
2023/11/27 00:30:14;;;;;;;;;;;1.10;80.20;;;;;;4995734;28;87158;-45
2023/11/27 00:32:39;;;;;;;;;;;1.10;80.30;;;;;;5000053;28;87810;-43
2023/11/27 00:35:06;;;;;;;;;;;1.00;80.30;;;;;;4998917;28;86355;-44
2023/11/27 00:37:31;;;;;;;;;;;1.10;80.50;;;;;;4995147;28;87278;-43
2023/11/27 00:39:57;;;;;;;;;;;1.10;80.40;;;;;;5000179;28;87388;-44
2023/11/27 00:42:22;;;;;;;;;;;1.10;80.40;;;;;;4991204;28;87982;-45
2023/11/27 00:44:48;;;;;;;;;;;1.10;80.20;;;;;;5000023;28;87580;-44
2023/11/27 00:47:13;;;;;;;;;;;1.10;80.50;;;;;;4998309;28;87450;-43
2023/11/27 00:49:39;;;;;;;;;;;1.00;80.30;;;;;;5003232;28;87085;-42
2023/11/27 00:52:05;;;;;;;;;;;1.10;80.40;;;;;;4997979;28;86940;-44
2023/11/27 00:54:30;;;;;;;;;;;1.00;80.30;;;;;;5004021;28;87435;-44
2023/11/27 00:56:56;;;;;;;;;;;1.00;80.30;;;;;;5001369;28;87006;-45
2023/11/27 00:59:21;;;;;;;;;;;1.00;80.60;;;;;;4998323;28;86861;-45
2023/11/27 01:01:47;;;;;;;;;;;1.10;80.50;;;;;;5000034;28;87043;-45
2023/11/27 01:04:12;;;;;;;;;;;1.00;80.30;;;;;;4997489;28;86913;-44
2023/11/27 01:06:38;;;;;;;;;;;1.00;80.40;;;;;;4998587;28;88411;-45
2023/11/27 01:09:06;;;;;;;;;;;1.00;80.50;;;;;;4999222;28;86946;-46
2023/11/27 01:11:32;;;;;;;;;;;1.00;80.50;;;;;;4997218;28;87020;-45
2023/11/27 01:13:57;;;;;;;;;;;1.00;80.40;;;;;;4998589;28;87522;-43
2023/11/27 01:16:23;;;;;;;;;;;1.00;80.40;;;;;;5003108;28;87017;-43
2023/11/27 01:18:48;;;;;;;;;;;1.00;80.60;;;;;;4998063;28;86786;-43
2023/11/27 01:21:14;;;;;;;;;;;1.00;80.40;;;;;;5001606;28;87166;-43
2023/11/27 01:23:39;;;;;;;;;;;1.00;80.50;;;;;;4999047;28;86583;-43
2023/11/27 01:26:06;;;;;;;;;;;1.00;80.60;;;;;;5003669;28;90143;-44
2023/11/27 01:28:33;;;;;;;;;;;1.00;80.50;;;;;;5000737;28;86927;-44
2023/11/27 01:30:59;;;;;;;;;;;1.00;80.60;;;;;;4996680;28;87886;-43
2023/11/27 01:33:25;;;;;;;;;;;0.90;80.60;;;;;;4999968;28;87522;-45
2023/11/27 01:35:50;;;;;;;;;;;1.00;80.70;;;;;;5000259;28;87295;-44
2023/11/27 01:38:16;;;;;;;;;;;1.00;80.70;;;;;;5006817;28;86904;-45
2023/11/27 01:40:41;;;;;;;;;;;0.90;80.50;;;;;;5000580;28;87197;-42
2023/11/27 01:43:11;;;;;;;;;;;1.00;80.60;;;;;;5003300;28;88633;-44
2023/11/27 01:45:36;;;;;;;;;;;1.00;80.70;;;;;;4999868;28;87543;-44
2023/11/27 01:48:02;;;;;;;;;;;1.00;80.60;;;;;;5003198;28;86956;-44
2023/11/27 01:50:28;;;;;;;;;;;0.90;80.60;;;;;;5003100;28;86852;-43
2023/11/27 01:52:53;;;;;;;;;;;1.00;80.60;;;;;;5000522;28;88516;-44
2023/11/27 01:55:19;;;;;;;;;;;1.00;80.80;;;;;;5002415;28;88076;-44
2023/11/27 01:57:44;;;;;;;;;;;0.90;80.60;;;;;;5001411;28;89136;-44
2023/11/27 02:00:11;;;;;;;;;;;1.00;80.70;;;;;;5002629;28;88336;-44
2023/11/27 02:02:38;;;;;;;;;;;0.90;80.60;;;;;;4999337;28;86950;-44
2023/11/27 02:05:04;;;;;;;;;;;0.90;80.70;;;;;;4999918;28;87684;-43
2023/11/27 02:07:30;;;;;;;;;;;0.90;80.60;;;;;;4996418;28;86836;-44
2023/11/27 02:09:56;;;;;;;;;;;0.90;80.70;;;;;;4996842;28;86937;-45
2023/11/27 02:12:21;;;;;;;;;;;0.90;80.70;;;;;;5000154;28;86682;-43
2023/11/27 02:14:49;;;;;;;;;;;0.90;80.60;;;;;;4997125;28;87067;-45
2023/11/27 02:17:15;;;;;;;;;;;0.90;80.60;;;;;;5000699;28;87192;-44
2023/11/27 02:19:40;;;;;;;;;;;0.90;80.70;;;;;;4997001;28;88406;-45
2023/11/27 02:22:06;;;;;;;;;;;0.90;80.70;;;;;;5004401;28;86981;-44
2023/11/27 02:24:32;;;;;;;;;;;0.90;80.70;;;;;;4998341;28;87415;-44
2023/11/27 02:26:57;;;;;;;;;;;0.90;80.60;;;;;;4995654;28;87008;-43
2023/11/27 02:29:23;;;;;;;;;;;0.90;80.80;;;;;;4994089;28;86890;-44
2023/11/27 02:31:48;;;;;;;;;;;0.90;80.90;;;;;;4995650;28;86691;-45
2023/11/27 02:34:17;;;;;;;;;;;0.90;80.90;;;;;;5000582;28;86975;-43
2023/11/27 02:36:42;;;;;;;;;;;0.90;80.80;;;;;;4997599;28;87822;-44
2023/11/27 02:39:08;;;;;;;;;;;0.90;80.90;;;;;;5001226;28;88491;-44
2023/11/27 02:41:36;;;;;;;;;;;0.90;80.80;;;;;;5003445;28;86975;-43
2023/11/27 02:44:03;;;;;;;;;;;0.90;80.80;;;;;;5002140;28;89439;-44
2023/11/27 02:46:29;;;;;;;;;;;0.80;80.80;;;;;;4999973;28;86949;-44
2023/11/27 02:48:55;;;;;;;;;;;0.80;80.90;;;;;;4998650;28;86909;-44
2023/11/27 02:51:20;;;;;;;;;;;0.90;80.90;;;;;;4999424;28;87436;-43
2023/11/27 02:53:46;;;;;;;;;;;0.80;80.80;;;;;;5000048;28;87057;-45
2023/11/27 02:56:13;;;;;;;;;;;0.90;80.90;;;;;;5002927;28;88003;-44
2023/11/27 02:58:39;;;;;;;;;;;0.80;81.00;;;;;;4996299;28;87452;-44
2023/11/27 03:01:08;;;;;;;;;;;0.80;81.00;;;;;;5001147;28;87082;-44
2023/11/27 03:03:37;;;;;;;;;;;0.80;81.00;;;;;;5002912;28;87260;-43
2023/11/27 03:06:03;;;;;;;;;;;0.80;80.90;;;;;;5002379;28;87335;-44
2023/11/27 03:08:28;;;;;;;;;;;0.90;81.10;;;;;;5001684;28;87970;-44
2023/11/27 03:10:54;;;;;;;;;;;0.80;81.00;;;;;;4995353;28;88456;-45
2023/11/27 03:13:19;;;;;;;;;;;0.80;80.90;;;;;;5001380;28;87105;-43
2023/11/27 03:15:45;;;;;;;;;;;0.80;81.10;;;;;;4997731;28;86709;-43
2023/11/27 03:18:10;;;;;;;;;;;0.80;81.00;;;;;;4997946;28;87569;-43
2023/11/27 03:20:37;;;;;;;;;;;0.80;81.00;;;;;;4991543;28;87905;-42
2023/11/27 03:23:03;;;;;;;;;;;0.80;81.10;;;;;;5001798;28;87834;-43
2023/11/27 03:25:28;;;;;;;;;;;0.80;81.10;;;;;;4999469;28;86552;-43
2023/11/27 03:27:54;;;;;;;;;;;0.80;81.10;;;;;;4994032;28;87067;-43
2023/11/27 03:30:21;;;;;;;;;;;0.80;81.00;;;;;;4998174;28;88490;-42
2023/11/27 03:32:47;;;;;;;;;;;0.80;81.20;;;;;;4998082;28;88072;-43
2023/11/27 03:35:12;;;;;;;;;;;0.70;81.00;;;;;;4994902;28;87719;-42
2023/11/27 03:37:38;;;;;;;;;;;0.70;81.20;;;;;;4994630;28;88533;-42
2023/11/27 03:40:05;;;;;;;;;;;0.70;81.20;;;;;;4998327;28;86876;-43
2023/11/27 03:42:31;;;;;;;;;;;0.80;81.10;;;;;;4998147;28;87784;-42
2023/11/27 03:44:57;;;;;;;;;;;0.80;81.80;;;;;;4995260;28;88582;-42
2023/11/27 03:47:23;;;;;;;;;;;0.70;81.10;;;;;;5004156;28;86984;-43
2023/11/27 03:49:49;;;;;;;;;;;0.70;81.30;;;;;;4999183;28;87858;-43
2023/11/27 03:52:15;;;;;;;;;;;0.80;81.20;;;;;;4997313;28;87105;-43
2023/11/27 03:54:41;;;;;;;;;;;0.70;81.20;;;;;;4996963;28;86879;-43
2023/11/27 03:57:06;;;;;;;;;;;0.70;81.40;;;;;;4995390;28;89602;-43
2023/11/27 03:59:32;;;;;;;;;;;0.70;81.10;;;;;;4997783;28;87043;-43
2023/11/27 04:01:57;;;;;;;;;;;0.70;81.30;;;;;;4997924;28;86937;-43
2023/11/27 04:04:23;;;;;;;;;;;0.70;81.40;;;;;;4995237;28;88895;-43
2023/11/27 04:06:48;;;;;;;;;;;0.70;81.20;;;;;;4999641;28;87061;-43
2023/11/27 04:09:18;;;;;;;;;;;0.70;81.10;;;;;;5003998;28;87030;-43
2023/11/27 04:11:44;;;;;;;;;;;0.70;81.30;;;;;;4997913;28;87111;-43
2023/11/27 04:14:09;;;;;;;;;;;0.70;81.30;;;;;;4998390;28;87939;-43
2023/11/27 04:16:35;;;;;;;;;;;0.70;81.30;;;;;;5000438;28;87569;-42
2023/11/27 04:19:00;;;;;;;;;;;0.70;81.20;;;;;;4998195;28;87104;-42
2023/11/27 04:21:26;;;;;;;;;;;0.70;81.20;;;;;;4997568;28;88193;-42
2023/11/27 04:23:52;;;;;;;;;;;0.70;81.30;;;;;;4997811;28;87640;-43
2023/11/27 04:26:21;;;;;;;;;;;0.70;81.30;;;;;;4999865;28;87102;-43
2023/11/27 04:28:47;;;;;;;;;;;0.70;81.30;;;;;;4999200;28;87875;-43
2023/11/27 04:31:13;;;;;;;;;;;0.70;81.30;;;;;;4997661;28;86926;-42
2023/11/27 04:33:39;;;;;;;;;;;0.70;81.40;;;;;;4994631;28;86960;-43
2023/11/27 04:36:05;;;;;;;;;;;0.70;81.40;;;;;;4995935;28;87560;-42
2023/11/27 04:38:31;;;;;;;;;;;0.70;81.30;;;;;;4998274;28;86185;-43
2023/11/27 04:40:56;;;;;;;;;;;0.70;81.40;;;;;;4998600;28;86899;-44
2023/11/27 04:43:22;;;;;;;;;;;0.70;81.40;;;;;;4999370;28;87542;-43
2023/11/27 04:45:48;;;;;;;;;;;0.70;81.40;;;;;;4997106;28;87859;-42
2023/11/27 04:48:13;;;;;;;;;;;0.70;81.30;;;;;;4998074;28;87068;-42
2023/11/27 04:50:39;;;;;;;;;;;0.70;81.50;;;;;;4999933;28;87358;-42
2023/11/27 04:53:04;;;;;;;;;;;0.70;81.40;;;;;;4998030;28;87367;-43
2023/11/27 04:55:30;;;;;;;;;;;0.60;81.40;;;;;;4994118;28;87537;-42
2023/11/27 04:57:55;;;;;;;;;;;0.60;81.40;;;;;;5003863;28;87151;-42
2023/11/27 05:00:21;;;;;;;;;;;0.70;81.40;;;;;;4997401;28;87249;-42
2023/11/27 05:02:47;;;;;;;;;;;0.60;81.50;;;;;;4998564;28;86775;-43
2023/11/27 05:05:15;;;;;;;;;;;0.60;81.40;;;;;;4994500;28;87572;-42
2023/11/27 05:07:41;;;;;;;;;;;0.60;81.40;;;;;;4999868;28;86964;-43
2023/11/27 05:10:07;;;;;;;;;;;0.60;81.30;;;;;;4996585;28;89611;-42
2023/11/27 05:12:33;;;;;;;;;;;0.60;81.60;;;;;;4998242;28;86975;-43
2023/11/27 05:14:58;;;;;;;;;;;0.60;81.20;;;;;;4996934;28;87844;-43
2023/11/27 05:17:24;;;;;;;;;;;0.60;81.30;;;;;;4998060;28;86972;-44
2023/11/27 05:19:49;;;;;;;;;;;0.60;81.50;;;;;;4996877;28;86906;-42
2023/11/27 05:22:15;;;;;;;;;;;0.60;81.30;;;;;;4999400;28;87262;-43
2023/11/27 05:24:41;;;;;;;;;;;0.60;81.40;;;;;;4994295;28;86917;-43
2023/11/27 05:27:06;;;;;;;;;;;0.60;81.70;;;;;;4996703;28;86771;-42
2023/11/27 05:29:32;;;;;;;;;;;0.60;81.50;;;;;;4994884;28;87872;-42
2023/11/27 05:31:57;;;;;;;;;;;0.60;81.40;;;;;;4996649;28;87224;-42
2023/11/27 05:34:23;;;;;;;;;;;0.60;81.40;;;;;;5005782;28;87869;-43
2023/11/27 05:36:48;;;;;;;;;;;0.60;81.40;;;;;;5000267;28;86875;-43
2023/11/27 05:39:15;;;;;;;;;;;0.60;81.50;;;;;;4999757;28;86929;-43
2023/11/27 05:41:41;;;;;;;;;;;0.60;81.50;;;;;;5003703;28;88352;-43
2023/11/27 05:44:07;;;;;;;;;;;0.60;81.60;;;;;;5007928;28;86953;-42
2023/11/27 05:46:33;;;;;;;;;;;0.60;81.70;;;;;;5000279;28;87034;-43
2023/11/27 05:48:59;;;;;;;;;;;0.60;81.50;;;;;;4995726;28;88468;-42
2023/11/27 05:51:25;;;;;;;;;;;0.60;81.60;;;;;;5001196;28;86350;-43
2023/11/27 05:53:51;;;;;;;;;;;0.60;81.70;;;;;;4992613;28;86947;-43
2023/11/27 05:56:16;;;;;;;;;;;0.60;81.50;;;;;;4999093;28;88470;-44
2023/11/27 05:58:42;;;;;;;;;;;0.60;81.60;;;;;;4999510;28;87952;-43
2023/11/27 06:01:08;;;;;;;;;;;0.60;81.50;;;;;;4995874;28;87427;-43
2023/11/27 06:03:36;;;;;;;;;;;0.50;81.60;;;;;;5000362;28;87109;-43
2023/11/27 06:06:04;;;;;;;;;;;0.50;81.60;;;;;;4998398;28;87978;-42
2023/11/27 06:08:30;;;;;;;;;;;0.50;81.60;;;;;;4999613;28;87690;-43
2023/11/27 06:10:55;;;;;;;;;;;0.50;81.60;;;;;;5000528;28;86895;-44
2023/11/27 06:13:21;;;;;;;;;;;0.50;81.50;;;;;;4997517;28;87027;-43
2023/11/27 06:15:46;;;;;;;;;;;0.50;81.60;;;;;;4994772;28;88908;-43
2023/11/27 06:18:13;;;;;;;;;;;0.50;81.60;;;;;;5003828;28;87024;-44
2023/11/27 06:20:40;;;;;;;;;;;0.50;81.50;;;;;;5000118;28;87545;-43
2023/11/27 06:23:05;;;;;;;;;;;0.50;82.20;;;;;;5002671;28;88017;-42
2023/11/27 06:25:31;;;;;;;;;;;0.50;81.50;;;;;;4991958;28;87412;-44
2023/11/27 06:27:57;;;;;;;;;;;0.50;81.80;;;;;;5000773;28;88499;-44
2023/11/27 06:30:23;;;;;;;;;;;0.60;81.80;;;;;;4995584;28;87029;-44
2023/11/27 06:32:48;;;;;;;;;;;0.50;81.60;;;;;;5002571;28;87718;-44
2023/11/27 06:35:14;;;;;;;;;;;0.50;81.60;;;;;;4995784;28;87491;-44
2023/11/27 06:37:39;;;;;;;;;;;0.50;81.60;;;;;;4998087;28;87087;-44
2023/11/27 06:40:05;;;;;;;;;;;0.60;81.70;;;;;;4995634;28;86743;-45
2023/11/27 06:42:31;;;;;;;;;;;0.50;81.60;;;;;;4998362;28;87024;-43
2023/11/27 06:44:56;;;;;;;;;;;0.50;81.40;;;;;;4999717;28;86991;-42
2023/11/27 06:47:22;;;;;;;;;;;0.50;81.60;;;;;;4992001;28;88521;-45
2023/11/27 06:49:47;;;;;;;;;;;0.50;81.70;;;;;;5002024;28;87038;-45
2023/11/27 06:52:13;;;;;;;;;;;0.50;81.70;;;;;;4999118;28;88002;-42
2023/11/27 06:54:39;;;;;;;;;;;0.50;81.60;;;;;;4998216;28;87096;-44
2023/11/27 06:57:04;;;;;;;;;;;0.50;81.60;;;;;;5002627;28;87943;-44
2023/11/27 06:59:30;;;;;;;;;;;0.50;81.60;;;;;;5001422;28;86971;-41
2023/11/27 07:01:55;;;;;;;;;;;0.50;81.60;;;;;;4993758;28;87074;-42
2023/11/27 07:04:21;;;;;;;;;;;0.50;81.60;;;;;;4998708;28;88265;-42
2023/11/27 07:06:47;;;;;;;;;;;0.50;81.50;;;;;;4998029;28;87334;-42
2023/11/27 07:09:15;;;;;;;;;;;0.50;81.60;;;;;;5003893;28;87031;-42
2023/11/27 07:11:40;;;;;;;;;;;0.50;81.70;;;;;;4997718;28;88095;-42
2023/11/27 07:14:06;;;;;;;;;;;0.50;81.70;;;;;;4997908;28;87554;-43
2023/11/27 07:16:31;;;;;;;;;;;0.50;81.60;;;;;;5002685;28;87143;-42
2023/11/27 07:18:57;;;;;;;;;;;0.50;81.60;;;;;;4995420;28;87945;-42
2023/11/27 07:21:27;;;;;;;;;;;0.50;81.40;;;;;;5001332;28;88450;-42
2023/11/27 07:23:56;;;;;;;;;;;0.50;81.40;;;;;;4998477;28;88000;-42
2023/11/27 07:26:24;;;;;;;;;;;0.50;81.40;;;;;;5000021;28;88627;-42
2023/11/27 07:28:50;;;;;;;;;;;0.50;81.40;;;;;;4999756;28;86282;-42
2023/11/27 07:31:16;;;;;;;;;;;0.60;81.40;;;;;;4999326;28;87148;-43
2023/11/27 07:33:44;;;;;;;;;;;0.50;81.20;;;;;;4994528;28;88460;-42
2023/11/27 07:36:10;;;;;;;;;;;0.50;81.30;;;;;;4996214;28;88092;-42
2023/11/27 07:38:36;;;;;;;;;;;0.50;81.20;;;;;;4997727;28;88991;-42
2023/11/27 07:41:05;;;;;;;;;;;0.60;81.30;;;;;;4992302;28;88413;-43
2023/11/27 07:43:31;;;;;;;;;;;0.60;81.40;;;;;;4997728;28;86966;-43
2023/11/27 07:45:56;;;;;;;;;;;0.50;81.20;;;;;;4999992;28;87269;-43
2023/11/27 07:48:22;;;;;;;;;;;0.60;81.30;;;;;;4996021;28;89085;-42
2023/11/27 07:50:48;;;;;;;;;;;0.60;81.20;;;;;;5005849;28;86963;-43
2023/11/27 07:53:14;;;;;;;;;;;0.60;81.20;;;;;;5003352;28;89460;-43
2023/11/27 07:55:40;;;;;;;;;;;0.60;81.10;;;;;;4992873;28;87733;-43
2023/11/27 07:58:05;;;;;;;;;;;0.60;81.20;;;;;;4998138;28;88305;-42
2023/11/27 08:00:31;;;;;;;;;;;0.60;81.20;;;;;;4997380;28;87954;-43
2023/11/27 08:02:57;;;;;;;;;;;0.60;81.20;;;;;;5000680;28;87053;-43
2023/11/27 08:05:24;;;;;;;;;;;0.60;81.20;;;;;;4997062;28;87354;-43
2023/11/27 08:07:49;;;;;;;;;;;0.60;81.10;;;;;;4993006;28;87549;-44
2023/11/27 08:10:15;;;;;;;;;;;0.60;81.20;;;;;;4998280;28;87803;-43
2023/11/27 08:12:42;;;;;;;;;;;0.60;81.20;;;;;;4997388;28;87336;-42
2023/11/27 08:15:08;;;;;;;;;;;0.60;81.30;;;;;;4999977;28;88740;-43
2023/11/27 08:17:34;;;;;;;;;;;0.60;81.10;;;;;;4998977;28;87834;-43
2023/11/27 08:20:04;;;;;;;;;;;0.60;81.10;;;;;;5001674;28;87292;-43
2023/11/27 08:22:30;;;;;;;;;;;0.60;81.10;;;;;;4994751;28;87130;-43
2023/11/27 08:24:57;;;;;;;;;;;0.60;81.10;;;;;;4995043;28;87908;-43
2023/11/27 08:27:26;;;;;;;;;;;0.60;81.20;;;;;;5003370;28;88393;-43
2023/11/27 08:29:52;;;;;;;;;;;0.60;81.00;;;;;;4996696;28;87864;-43
2023/11/27 08:32:18;;;;;;;;;;;0.60;81.10;;;;;;4992791;28;87549;-43
2023/11/27 08:34:43;;;;;;;;;;;0.60;81.00;;;;;;4996808;28;87721;-43
2023/11/27 08:37:09;;;;;;;;;;;0.60;81.00;;;;;;4998351;28;86760;-42
2023/11/27 08:39:36;;;;;;;;;;;0.70;81.00;;;;;;4998239;28;88157;-43
2023/11/27 08:42:02;;;;;;;;;;;0.70;81.00;;;;;;4991937;28;86308;-44
2023/11/27 08:44:28;;;;;;;;;;;0.70;80.80;;;;;;4991878;28;86948;-43
2023/11/27 08:46:53;;;;;;;;;;;0.60;80.90;;;;;;4996679;28;88597;-43
2023/11/27 08:49:19;;;;;;;;;;;0.70;80.90;;;;;;4997486;28;88006;-42
2023/11/27 08:51:45;;;;;;;;;;;0.70;80.80;;;;;;4996002;28;87208;-43
2023/11/27 08:54:11;;;;;;;;;;;0.70;80.70;;;;;;4993228;28;87011;-42
2023/11/27 08:56:40;;;;;;;;;;;0.70;80.80;;;;;;4994773;28;87668;-43
2023/11/27 08:59:06;;;;;;;;;;;0.70;80.90;;;;;;4999112;28;87230;-44
2023/11/27 09:01:31;;;;;;;;;;;0.70;80.90;;;;;;4995109;28;87140;-43
2023/11/27 09:03:57;;;;;;;;;;;0.70;80.80;;;;;;4995706;28;87905;-44
2023/11/27 09:06:23;;;;;;;;;;;0.70;80.70;;;;;;5001202;28;87756;-43
2023/11/27 09:08:48;;;;;;;;;;;0.70;80.80;;;;;;4999872;28;87011;-43
2023/11/27 09:11:14;;;;;;;;;;;0.70;80.70;;;;;;4994741;28;87041;-43
2023/11/27 09:13:40;;;;;;;;;;;0.70;81.00;;;;;;4995432;28;87863;-43
2023/11/27 09:16:06;;;;;;;;;;;0.70;81.00;;;;;;4999890;28;88255;-43
2023/11/27 09:18:32;;;;;;;;;;;0.70;81.00;;;;;;4998890;28;87010;-43
2023/11/27 09:20:58;;;;;;;;;;;0.60;80.90;;;;;;5006714;28;87830;-43
2023/11/27 09:23:24;;;;;;;;;;;0.70;80.90;;;;;;5000489;28;86904;-43
2023/11/27 09:25:49;;;;;;;;;;;0.70;80.80;;;;;;5005575;28;87468;-43
2023/11/27 09:28:15;;;;;;;;;;;0.70;80.90;;;;;;4997769;28;87111;-42
2023/11/27 09:30:40;;;;;;;;;;;0.70;81.00;;;;;;5003426;28;88195;-43
2023/11/27 09:33:06;;;;;;;;;;;0.70;81.00;;;;;;5000403;28;87178;-43
2023/11/27 09:35:31;;;;;;;;;;;0.60;80.90;;;;;;4997814;28;87584;-43
2023/11/27 09:37:57;;;;;;;;;;;0.70;80.90;;;;;;4998949;28;88399;-45
2023/11/27 09:40:23;;;;;;;;;;;0.70;80.90;;;;;;5002727;28;87356;-42
2023/11/27 09:42:48;;;;;;;;;;;0.70;80.80;;;;;;5007380;28;89618;-44
2023/11/27 09:45:16;;;;;;;;;;;0.70;80.70;;;;;;5004137;28;88120;-43
2023/11/27 09:47:44;;;;;;;;;;;0.70;80.80;;;;;;5001715;28;87888;-43
2023/11/27 09:50:12;;;;;;;;;;;0.70;80.80;;;;;;4996037;28;88013;-43
2023/11/27 09:52:59;;;;;;;;;;;0.70;80.80;;;;;;5002829;28;87407;-44
2023/11/27 09:55:26;;;;;;;;;;;0.70;80.70;;;;;;4996109;28;88014;-44
2023/11/27 09:57:52;;;;;;;;;;;0.70;80.90;;;;;;4997432;28;87619;-43
2023/11/27 10:00:21;;;;;;;;;;;0.70;80.90;;;;;;4997012;28;87061;-42
2023/11/27 10:02:47;;;;;;;;;;;0.70;80.90;;;;;;4998656;28;87963;-43
2023/11/27 10:05:21;;;;;;;;;;;0.70;80.40;;;;;;4996621;28;88776;-45
2023/11/27 10:07:49;;;;;;;;;;;0.70;80.60;;;;;;4993486;28;87032;-43
2023/11/27 10:10:16;;;;;;;;;;;0.70;80.40;;;;;;4994629;28;87725;-44
2023/11/27 10:12:45;;;;;;;;;;;0.70;80.80;;;;;;4998236;28;87477;-43
2023/11/27 10:15:11;;;;;;;;;;;0.70;80.70;;;;;;5005452;28;87087;-43
2023/11/27 10:17:37;;;;;;;;;;;0.70;80.60;;;;;;4999162;28;88505;-44
2023/11/27 10:20:04;;;;;;;;;;;0.70;80.60;;;;;;5000536;28;86243;-44
2023/11/27 10:22:32;;;;;;;;;;;0.70;80.70;;;;;;5002075;28;87826;-44
2023/11/27 10:25:01;;;;;;;;;;;0.80;80.30;;;;;;5001633;28;87030;-43
2023/11/27 10:27:26;;;;;;;;;;;0.70;80.80;;;;;;4995554;28;88079;-46
2023/11/27 10:29:52;;;;;;;;;;;0.80;80.30;;;;;;5000862;28;87652;-45
2023/11/27 10:32:22;;;;;;;;;;;0.80;80.60;;;;;;4996590;28;88476;-43
2023/11/27 10:34:49;;;;;;;;;;;0.80;80.50;;;;;;5001524;28;87244;-44
2023/11/27 10:37:15;;;;;;;;;;;0.80;80.40;;;;;;5001230;28;88246;-44
2023/11/27 10:39:40;;;;;;;;;;;0.80;80.40;;;;;;5001330;28;87036;-45
2023/11/27 10:42:07;;;;;;;;;;;0.70;80.40;;;;;;4999184;28;88623;-44
2023/11/27 10:44:34;;;;;;;;;;;0.80;81.00;;;;;;4993722;28;87976;-44
2023/11/27 10:47:00;;;;;;;;;;;0.80;80.70;;;;;;4998323;28;87621;-44
2023/11/27 10:49:28;;;;;;;;;;;0.80;80.60;;;;;;4999505;28;87117;-44
2023/11/27 10:51:53;;;;;;;;;;;0.80;80.60;;;;;;4996105;28;88333;-44
2023/11/27 10:54:21;;;;;;;;;;;0.80;80.70;;;;;;4996191;28;87054;-45
2023/11/27 10:56:47;;;;;;;;;;;0.80;80.90;;;;;;4996161;28;87856;-44
2023/11/27 10:59:13;;;;;;;;;;;0.80;80.30;;;;;;5001642;28;88562;-44
2023/11/27 11:01:43;;;;;;;;;;;0.80;80.40;;;;;;4998081;28;87968;-46
2023/11/27 11:04:22;;;;;;;;;;;0.80;80.60;;;;;;4999020;28;88610;-44
2023/11/27 11:06:50;;;;;;;;;;;0.80;80.40;;;;;;4996395;28;87069;-44
2023/11/27 11:09:16;;;;;;;;;;;0.80;80.60;;;;;;4993907;28;87378;-44
2023/11/27 11:11:47;;;;;;;;;;;0.80;81.10;;;;;;5002169;28;87562;-44
2023/11/27 11:14:15;;;;;;;;;;;0.80;80.50;;;;;;5002325;28;87054;-44
2023/11/27 11:16:51;;;;;;;;;;;0.80;80.60;;;;;;4998660;28;87988;-44
2023/11/27 11:19:27;;;;;;;;;;;0.80;80.60;;;;;;5001774;28;87736;-44
2023/11/27 11:22:08;;;;;;;;;;;0.80;80.90;;;;;;4999308;28;87823;-45
2023/11/27 11:24:52;;;;;;;;;;;0.80;81.10;;;;;;4996228;28;87425;-44
2023/11/27 11:27:27;;;;;;;;;;;0.80;80.40;;;;;;4996833;28;87133;-44
2023/11/27 11:29:57;;;;;;;;;;;0.80;80.80;;;;;;4995874;28;87825;-44
2023/11/27 11:32:28;;;;;;;;;;;0.80;80.80;;;;;;4995788;28;87510;-43
2023/11/27 11:34:54;;;;;;;;;;;0.80;81.10;;;;;;4997399;28;87487;-44
2023/11/27 11:37:20;;;;;;;;;;;0.80;80.50;;;;;;4998833;28;88823;-45
2023/11/27 11:39:53;;;;;;;;;;;0.80;80.90;;;;;;4996613;28;88413;-45
2023/11/27 11:42:23;;;;;;;;;;;0.80;81.00;;;;;;5001129;28;88085;-44
2023/11/27 11:45:17;;;;;;;;;;;0.80;80.80;;;;;;4999043;28;89408;-44
2023/11/27 11:47:43;;;;;;;;;;;0.80;81.00;;;;;;4997320;28;87116;-45
2023/11/27 11:50:28;;;;;;;;;;;0.80;80.80;;;;;;4999523;28;87866;-44
2023/11/27 11:52:55;;;;;;;;;;;0.80;80.60;;;;;;4999319;28;88473;-45
2023/11/27 11:55:25;;;;;;;;;;;0.80;80.70;;;;;;4994092;28;87346;-44
2023/11/27 11:57:51;;;;;;;;;;;0.80;80.60;;;;;;4990726;28;87795;-44
2023/11/27 12:00:22;;;;;;;;;;;0.80;80.70;;;;;;5000221;28;87151;-45
2023/11/27 12:02:50;;;;;;;;;;;0.80;81.00;;;;;;5005485;28;87029;-44
2023/11/27 12:05:16;;;;;;;;;;;0.80;80.80;;;;;;4999003;28;86989;-46
2023/11/27 12:07:41;;;;;;;;;;;0.80;80.90;;;;;;4993419;28;88631;-44
2023/11/27 12:10:07;;;;;;;;;;;0.80;80.90;;;;;;4994990;28;87862;-44
2023/11/27 12:12:33;;;;;;;;;;;0.80;81.10;;;;;;4998405;28;87486;-44
2023/11/27 12:15:00;;;;;;;;;;;0.80;80.90;;;;;;4993134;28;87188;-43
2023/11/27 12:17:29;;;;;;;;;;;0.80;80.90;;;;;;4997286;28;88086;-43
2023/11/27 12:19:55;;;;;;;;;;;0.80;82.00;;;;;;4991846;28;87483;-43
2023/11/27 12:22:21;;;;;;;;;;;0.80;81.10;;;;;;5002867;28;87036;-44
2023/11/27 12:24:50;;;;;;;;;;;0.80;81.40;;;;;;4995104;28;86622;-44
2023/11/27 12:27:16;;;;;;;;;;;0.80;81.50;;;;;;4995818;28;87563;-44
2023/11/27 12:29:44;;;;;;;;;;;0.80;81.60;;;;;;4994725;28;87117;-44
2023/11/27 12:32:10;;;;;;;;;;;0.80;81.30;;;;;;4995085;28;88714;-43
2023/11/27 12:34:35;;;;;;;;;;;0.90;81.20;;;;;;4996108;28;87058;-44
2023/11/27 12:37:02;;;;;;;;;;;0.80;81.30;;;;;;4997609;28;87740;-44
2023/11/27 12:39:28;;;;;;;;;;;0.90;81.20;;;;;;4995810;28;87543;-43
2023/11/27 12:42:02;;;;;;;;;;;0.90;81.20;;;;;;5001852;28;87132;-43
2023/11/27 12:44:29;;;;;;;;;;;0.90;81.20;;;;;;4996617;28;87518;-43
2023/11/27 12:46:55;;;;;;;;;;;0.90;81.10;;;;;;5000221;28;87072;-43
2023/11/27 12:49:22;;;;;;;;;;;0.90;81.30;;;;;;5003575;28;86158;-43
2023/11/27 12:51:47;;;;;;;;;;;0.90;81.10;;;;;;5002020;28;88730;-44
2023/11/27 12:54:18;;;;;;;;;;;0.90;81.30;;;;;;5000766;28;87269;-43
2023/11/27 12:56:59;;;;;;;;;;;0.90;81.20;;;;;;4998232;28;88081;-44
2023/11/27 12:59:24;;;;;;;;;;;0.90;81.10;;;;;;4998881;28;88642;-44
2023/11/27 13:01:53;;;;;;;;;;;0.90;81.20;;;;;;4997243;28;86909;-43
2023/11/27 13:04:47;;;;;;;;;;;0.90;81.30;;;;;;5002224;28;87113;-44
2023/11/27 13:07:15;;;;;;;;;;;1.00;81.20;;;;;;4994151;28;88199;-43
2023/11/27 13:09:42;;;;;;;;;;;0.90;81.20;;;;;;5004589;28;87028;-44
2023/11/27 13:12:18;;;;;;;;;;;1.00;81.30;;;;;;4993035;28;88670;-44
2023/11/27 13:14:44;;;;;;;;;;;0.90;81.20;;;;;;4995735;28;86287;-44
2023/11/27 13:17:18;;;;;;;;;;;0.90;81.20;;;;;;4998848;28;87698;-43
2023/11/27 13:19:47;;;;;;;;;;;0.90;81.20;;;;;;5000280;28;88594;-44
2023/11/27 13:22:15;;;;;;;;;;;0.90;81.40;;;;;;4999849;28;87959;-44
2023/11/27 13:24:41;;;;;;;;;;;0.90;81.40;;;;;;4996865;28;88869;-43
2023/11/27 13:27:07;;;;;;;;;;;0.90;81.60;;;;;;4999149;28;88477;-44
2023/11/27 13:29:33;;;;;;;;;;;0.90;81.50;;;;;;5001108;28;87263;-45
2023/11/27 13:32:01;;;;;;;;;;;1.00;81.40;;;;;;4999903;28;87872;-44
2023/11/27 13:34:32;;;;;;;;;;;0.90;81.70;;;;;;4996806;28;87019;-44
2023/11/27 13:37:07;;;;;;;;;;;0.90;81.40;;;;;;5003032;28;86989;-43
2023/11/27 13:39:36;;;;;;;;;;;1.00;81.40;;;;;;5000301;28;86618;-43
2023/11/27 13:42:04;;;;;;;;;;;0.90;81.50;;;;;;5001137;28;87212;-44
2023/11/27 13:44:30;;;;;;;;;;;0.90;81.40;;;;;;4997637;28;87837;-43
2023/11/27 13:46:56;;;;;;;;;;;0.90;81.40;;;;;;5002684;28;89518;-44
2023/11/27 13:49:25;;;;;;;;;;;0.90;81.60;;;;;;4996892;28;87145;-44
2023/11/27 13:51:54;;;;;;;;;;;0.90;81.40;;;;;;4995457;28;88149;-44
2023/11/27 13:54:25;;;;;;;;;;;1.00;81.60;;;;;;5002398;28;87866;-44
2023/11/27 13:56:58;;;;;;;;;;;1.00;81.50;;;;;;5000340;28;87882;-44
2023/11/27 13:59:27;;;;;;;;;;;1.00;81.70;;;;;;4996197;28;87904;-44
2023/11/27 14:01:54;;;;;;;;;;;1.00;81.70;;;;;;5003122;28;87588;-44
2023/11/27 14:04:29;;;;;;;;;;;1.00;81.60;;;;;;4998191;28;87984;-44
2023/11/27 14:06:57;;;;;;;;;;;0.90;81.50;;;;;;5002300;28;87495;-43
2023/11/27 14:12:12;;;;;;;;;;;0.90;81.70;;;;;;4997899;28;88292;-43
2023/11/27 14:14:38;;;;;;;;;;;0.90;81.80;;;;;;5002130;28;88939;-44
2023/11/27 14:17:18;;;;;;;;;;;0.90;81.80;;;;;;5001618;28;87702;-43
2023/11/27 14:25:20;;;;;;;;;;;0.90;81.70;;;;;;4995421;28;87064;-43
2023/11/27 14:27:59;;;;;;;;;;;0.90;81.60;;;;;;4997421;28;87049;-44
2023/11/27 14:30:26;;;;;;;;;;;0.90;81.90;;;;;;4996370;28;86192;-44
2023/11/27 14:32:53;;;;;;;;;;;1.00;81.80;;;;;;4999535;28;86943;-43
2023/11/27 14:35:20;;;;;;;;;;;0.90;81.90;;;;;;4998886;28;88624;-45
2023/11/27 14:37:45;;;;;;;;;;;0.90;81.80;;;;;;4993325;28;87975;-43